sensor_id;sensor_type;location;lat;lon;timestamp;temperature;humidity
74809;DHT22;63338;39.544;2.596;2023-08-08T00:01:28;24.50;71.80
74809;DHT22;63338;39.544;2.596;2023-08-08T00:03:54;24.40;71.90
74809;DHT22;63338;39.544;2.596;2023-08-08T00:06:21;24.40;71.80
74809;DHT22;63338;39.544;2.596;2023-08-08T00:08:47;24.40;71.60
74809;DHT22;63338;39.544;2.596;2023-08-08T00:11:13;24.40;71.70
74809;DHT22;63338;39.544;2.596;2023-08-08T00:13:39;24.40;71.50
74809;DHT22;63338;39.544;2.596;2023-08-08T00:16:05;24.40;71.70
74809;DHT22;63338;39.544;2.596;2023-08-08T00:18:32;24.40;71.60
74809;DHT22;63338;39.544;2.596;2023-08-08T00:20:58;24.40;71.70
74809;DHT22;63338;39.544;2.596;2023-08-08T00:23:43;24.30;71.50
74809;DHT22;63338;39.544;2.596;2023-08-08T00:27:06;24.30;71.60
74809;DHT22;63338;39.544;2.596;2023-08-08T00:29:34;24.20;71.80
74809;DHT22;63338;39.544;2.596;2023-08-08T00:32:00;24.30;71.70
74809;DHT22;63338;39.544;2.596;2023-08-08T00:34:26;24.20;71.60
74809;DHT22;63338;39.544;2.596;2023-08-08T00:36:52;24.20;71.40
74809;DHT22;63338;39.544;2.596;2023-08-08T00:39:18;24.20;71.70
74809;DHT22;63338;39.544;2.596;2023-08-08T00:41:46;24.10;71.80
74809;DHT22;63338;39.544;2.596;2023-08-08T00:44:12;24.10;71.80
74809;DHT22;63338;39.544;2.596;2023-08-08T00:46:50;24.10;71.90
74809;DHT22;63338;39.544;2.596;2023-08-08T00:49:16;24.10;71.80
74809;DHT22;63338;39.544;2.596;2023-08-08T00:51:42;24.10;71.90
74809;DHT22;63338;39.544;2.596;2023-08-08T00:54:10;24.10;71.80
74809;DHT22;63338;39.544;2.596;2023-08-08T00:56:36;24.00;71.70
74809;DHT22;63338;39.544;2.596;2023-08-08T00:59:03;23.90;71.80
74809;DHT22;63338;39.544;2.596;2023-08-08T01:01:30;24.00;71.90
74809;DHT22;63338;39.544;2.596;2023-08-08T01:03:56;24.00;71.90
74809;DHT22;63338;39.544;2.596;2023-08-08T01:06:43;24.00;71.80
74809;DHT22;63338;39.544;2.596;2023-08-08T01:09:47;24.00;71.90
74809;DHT22;63338;39.544;2.596;2023-08-08T01:12:17;24.00;71.90
74809;DHT22;63338;39.544;2.596;2023-08-08T01:14:52;24.00;71.70
74809;DHT22;63338;39.544;2.596;2023-08-08T01:17:27;24.00;72.00
74809;DHT22;63338;39.544;2.596;2023-08-08T01:20:06;23.90;71.80
74809;DHT22;63338;39.544;2.596;2023-08-08T01:26:12;24.00;71.70
74809;DHT22;63338;39.544;2.596;2023-08-08T01:29:15;23.90;72.20
74809;DHT22;63338;39.544;2.596;2023-08-08T01:31:41;23.90;72.40
74809;DHT22;63338;39.544;2.596;2023-08-08T01:34:08;23.90;72.50
74809;DHT22;63338;39.544;2.596;2023-08-08T01:36:41;23.90;72.60
74809;DHT22;63338;39.544;2.596;2023-08-08T01:39:14;23.80;73.00
74809;DHT22;63338;39.544;2.596;2023-08-08T01:41:43;23.80;73.20
74809;DHT22;63338;39.544;2.596;2023-08-08T01:44:10;23.80;73.50
74809;DHT22;63338;39.544;2.596;2023-08-08T01:46:40;23.70;73.50
74809;DHT22;63338;39.544;2.596;2023-08-08T01:49:06;23.70;73.70
74809;DHT22;63338;39.544;2.596;2023-08-08T01:51:33;23.60;74.50
74809;DHT22;63338;39.544;2.596;2023-08-08T01:53:59;23.50;74.90
74809;DHT22;63338;39.544;2.596;2023-08-08T01:56:27;23.50;74.80
74809;DHT22;63338;39.544;2.596;2023-08-08T01:58:53;23.50;75.10
74809;DHT22;63338;39.544;2.596;2023-08-08T02:01:19;23.50;75.20
74809;DHT22;63338;39.544;2.596;2023-08-08T02:03:45;23.30;75.20
74809;DHT22;63338;39.544;2.596;2023-08-08T02:06:11;23.30;75.50
74809;DHT22;63338;39.544;2.596;2023-08-08T02:08:37;23.20;75.80
74809;DHT22;63338;39.544;2.596;2023-08-08T02:11:03;23.20;75.90
74809;DHT22;63338;39.544;2.596;2023-08-08T02:13:32;23.10;76.10
74809;DHT22;63338;39.544;2.596;2023-08-08T02:15:58;23.10;76.50
74809;DHT22;63338;39.544;2.596;2023-08-08T02:18:24;23.00;76.70
74809;DHT22;63338;39.544;2.596;2023-08-08T02:20:50;23.00;76.80
74809;DHT22;63338;39.544;2.596;2023-08-08T02:23:16;22.90;77.00
74809;DHT22;63338;39.544;2.596;2023-08-08T02:25:42;22.90;77.00
74809;DHT22;63338;39.544;2.596;2023-08-08T02:28:09;22.90;77.20
74809;DHT22;63338;39.544;2.596;2023-08-08T02:30:36;22.90;77.20
74809;DHT22;63338;39.544;2.596;2023-08-08T02:33:02;22.80;77.40
74809;DHT22;63338;39.544;2.596;2023-08-08T02:35:28;22.80;77.40
74809;DHT22;63338;39.544;2.596;2023-08-08T02:37:55;22.80;77.50
74809;DHT22;63338;39.544;2.596;2023-08-08T02:40:22;22.80;77.70
74809;DHT22;63338;39.544;2.596;2023-08-08T02:45:46;22.70;77.90
74809;DHT22;63338;39.544;2.596;2023-08-08T02:48:18;22.70;77.90
74809;DHT22;63338;39.544;2.596;2023-08-08T02:51:07;22.70;78.20
74809;DHT22;63338;39.544;2.596;2023-08-08T02:53:33;22.60;78.20
74809;DHT22;63338;39.544;2.596;2023-08-08T02:56:03;22.70;78.40
74809;DHT22;63338;39.544;2.596;2023-08-08T02:58:33;22.60;78.60
74809;DHT22;63338;39.544;2.596;2023-08-08T03:00:59;22.60;78.60
74809;DHT22;63338;39.544;2.596;2023-08-08T03:03:28;22.70;78.80
74809;DHT22;63338;39.544;2.596;2023-08-08T03:05:55;22.50;78.70
74809;DHT22;63338;39.544;2.596;2023-08-08T03:08:21;22.50;78.90
74809;DHT22;63338;39.544;2.596;2023-08-08T03:10:47;22.60;78.70
74809;DHT22;63338;39.544;2.596;2023-08-08T03:13:13;22.60;78.90
74809;DHT22;63338;39.544;2.596;2023-08-08T03:15:42;22.60;79.00
74809;DHT22;63338;39.544;2.596;2023-08-08T03:18:08;22.60;79.00
74809;DHT22;63338;39.544;2.596;2023-08-08T03:20:34;22.60;79.00
74809;DHT22;63338;39.544;2.596;2023-08-08T03:23:00;22.50;79.10
74809;DHT22;63338;39.544;2.596;2023-08-08T03:25:27;22.60;79.10
74809;DHT22;63338;39.544;2.596;2023-08-08T03:27:53;22.40;79.10
74809;DHT22;63338;39.544;2.596;2023-08-08T03:30:20;22.30;79.10
74809;DHT22;63338;39.544;2.596;2023-08-08T03:32:48;22.40;79.10
74809;DHT22;63338;39.544;2.596;2023-08-08T03:35:17;22.50;79.30
74809;DHT22;63338;39.544;2.596;2023-08-08T03:37:44;22.50;79.30
74809;DHT22;63338;39.544;2.596;2023-08-08T03:40:10;22.40;79.40
74809;DHT22;63338;39.544;2.596;2023-08-08T03:42:38;22.40;79.40
74809;DHT22;63338;39.544;2.596;2023-08-08T03:45:04;22.40;79.40
74809;DHT22;63338;39.544;2.596;2023-08-08T03:47:30;22.40;79.40
74809;DHT22;63338;39.544;2.596;2023-08-08T03:49:56;22.40;79.50
74809;DHT22;63338;39.544;2.596;2023-08-08T03:52:23;22.40;79.50
74809;DHT22;63338;39.544;2.596;2023-08-08T03:54:53;22.40;79.50
74809;DHT22;63338;39.544;2.596;2023-08-08T03:57:20;22.30;79.80
74809;DHT22;63338;39.544;2.596;2023-08-08T03:59:48;22.30;79.80
74809;DHT22;63338;39.544;2.596;2023-08-08T04:02:14;22.30;79.70
74809;DHT22;63338;39.544;2.596;2023-08-08T04:04:40;22.30;79.70
74809;DHT22;63338;39.544;2.596;2023-08-08T04:07:06;22.30;79.90
74809;DHT22;63338;39.544;2.596;2023-08-08T04:09:32;22.30;79.80
74809;DHT22;63338;39.544;2.596;2023-08-08T04:11:58;22.30;79.90
74809;DHT22;63338;39.544;2.596;2023-08-08T04:14:25;22.30;79.70
74809;DHT22;63338;39.544;2.596;2023-08-08T04:16:51;22.30;79.90
74809;DHT22;63338;39.544;2.596;2023-08-08T04:19:17;22.20;80.00
74809;DHT22;63338;39.544;2.596;2023-08-08T04:21:43;22.20;80.00
74809;DHT22;63338;39.544;2.596;2023-08-08T04:24:09;22.20;79.90
74809;DHT22;63338;39.544;2.596;2023-08-08T04:26:40;22.20;79.90
74809;DHT22;63338;39.544;2.596;2023-08-08T04:29:06;22.20;80.00
74809;DHT22;63338;39.544;2.596;2023-08-08T04:31:32;22.10;80.00
74809;DHT22;63338;39.544;2.596;2023-08-08T04:34:00;22.10;80.20
74809;DHT22;63338;39.544;2.596;2023-08-08T04:36:27;22.10;80.20
74809;DHT22;63338;39.544;2.596;2023-08-08T04:38:54;22.20;80.20
74809;DHT22;63338;39.544;2.596;2023-08-08T04:41:20;22.10;80.10
74809;DHT22;63338;39.544;2.596;2023-08-08T04:43:46;22.00;80.30
74809;DHT22;63338;39.544;2.596;2023-08-08T04:46:12;22.00;80.30
74809;DHT22;63338;39.544;2.596;2023-08-08T04:48:39;22.00;80.40
74809;DHT22;63338;39.544;2.596;2023-08-08T04:51:06;22.00;80.40
74809;DHT22;63338;39.544;2.596;2023-08-08T04:53:32;22.00;80.30
74809;DHT22;63338;39.544;2.596;2023-08-08T04:55:58;22.00;80.20
74809;DHT22;63338;39.544;2.596;2023-08-08T04:58:24;22.00;80.30
74809;DHT22;63338;39.544;2.596;2023-08-08T05:00:51;22.10;80.20
74809;DHT22;63338;39.544;2.596;2023-08-08T05:03:17;22.00;80.30
74809;DHT22;63338;39.544;2.596;2023-08-08T05:05:49;22.10;80.30
74809;DHT22;63338;39.544;2.596;2023-08-08T05:08:19;22.00;80.20
74809;DHT22;63338;39.544;2.596;2023-08-08T05:10:46;22.00;80.10
74809;DHT22;63338;39.544;2.596;2023-08-08T05:13:13;22.00;80.00
74809;DHT22;63338;39.544;2.596;2023-08-08T05:15:39;22.00;80.20
74809;DHT22;63338;39.544;2.596;2023-08-08T05:18:05;22.10;80.10
74809;DHT22;63338;39.544;2.596;2023-08-08T05:20:31;22.00;80.00
74809;DHT22;63338;39.544;2.596;2023-08-08T05:23:08;22.10;80.30
74809;DHT22;63338;39.544;2.596;2023-08-08T05:25:44;22.10;80.30
74809;DHT22;63338;39.544;2.596;2023-08-08T05:28:11;22.20;80.30
74809;DHT22;63338;39.544;2.596;2023-08-08T05:30:38;22.20;80.30
74809;DHT22;63338;39.544;2.596;2023-08-08T05:33:14;22.20;80.00
74809;DHT22;63338;39.544;2.596;2023-08-08T05:35:46;22.40;79.70
74809;DHT22;63338;39.544;2.596;2023-08-08T05:38:15;22.40;79.50
74809;DHT22;63338;39.544;2.596;2023-08-08T05:40:47;22.40;79.40
74809;DHT22;63338;39.544;2.596;2023-08-08T05:43:25;22.50;79.20
74809;DHT22;63338;39.544;2.596;2023-08-08T05:46:04;22.60;79.10
74809;DHT22;63338;39.544;2.596;2023-08-08T05:48:43;22.70;79.10
74809;DHT22;63338;39.544;2.596;2023-08-08T05:51:14;22.70;78.90
74809;DHT22;63338;39.544;2.596;2023-08-08T05:54:01;22.80;78.80
74809;DHT22;63338;39.544;2.596;2023-08-08T05:56:37;22.90;78.70
74809;DHT22;63338;39.544;2.596;2023-08-08T05:59:31;23.00;78.50
74809;DHT22;63338;39.544;2.596;2023-08-08T06:02:16;23.10;78.10
74809;DHT22;63338;39.544;2.596;2023-08-08T06:04:43;23.20;77.70
74809;DHT22;63338;39.544;2.596;2023-08-08T06:07:12;23.40;77.60
74809;DHT22;63338;39.544;2.596;2023-08-08T06:09:42;23.40;76.80
74809;DHT22;63338;39.544;2.596;2023-08-08T06:12:09;23.70;75.90
74809;DHT22;63338;39.544;2.596;2023-08-08T06:14:39;23.80;75.50
74809;DHT22;63338;39.544;2.596;2023-08-08T06:17:33;23.90;75.00
74809;DHT22;63338;39.544;2.596;2023-08-08T06:20:00;24.00;74.40
74809;DHT22;63338;39.544;2.596;2023-08-08T06:22:34;24.10;73.80
74809;DHT22;63338;39.544;2.596;2023-08-08T06:25:21;24.10;73.60
74809;DHT22;63338;39.544;2.596;2023-08-08T06:27:48;24.40;73.30
74809;DHT22;63338;39.544;2.596;2023-08-08T06:30:22;24.50;72.80
74809;DHT22;63338;39.544;2.596;2023-08-08T06:32:55;24.60;72.80
74809;DHT22;63338;39.544;2.596;2023-08-08T06:35:24;24.70;72.60
74809;DHT22;63338;39.544;2.596;2023-08-08T06:37:50;24.80;72.30
74809;DHT22;63338;39.544;2.596;2023-08-08T06:40:16;24.90;72.10
74809;DHT22;63338;39.544;2.596;2023-08-08T06:42:43;25.10;71.90
74809;DHT22;63338;39.544;2.596;2023-08-08T06:45:09;25.10;71.90
74809;DHT22;63338;39.544;2.596;2023-08-08T06:47:35;25.20;71.10
74809;DHT22;63338;39.544;2.596;2023-08-08T06:50:05;25.30;71.10
74809;DHT22;63338;39.544;2.596;2023-08-08T06:52:37;25.40;70.80
74809;DHT22;63338;39.544;2.596;2023-08-08T06:55:05;25.40;70.70
74809;DHT22;63338;39.544;2.596;2023-08-08T06:57:35;25.50;69.80
74809;DHT22;63338;39.544;2.596;2023-08-08T07:00:08;25.50;70.50
74809;DHT22;63338;39.544;2.596;2023-08-08T07:02:35;25.80;70.30
74809;DHT22;63338;39.544;2.596;2023-08-08T07:05:01;25.80;70.40
74809;DHT22;63338;39.544;2.596;2023-08-08T07:07:47;25.90;70.10
74809;DHT22;63338;39.544;2.596;2023-08-08T07:10:15;25.90;69.40
74809;DHT22;63338;39.544;2.596;2023-08-08T07:12:42;26.10;69.20
74809;DHT22;63338;39.544;2.596;2023-08-08T07:15:14;26.10;69.00
74809;DHT22;63338;39.544;2.596;2023-08-08T07:17:41;26.20;68.60
74809;DHT22;63338;39.544;2.596;2023-08-08T07:20:15;26.20;68.00
74809;DHT22;63338;39.544;2.596;2023-08-08T07:22:44;26.40;67.10
74809;DHT22;63338;39.544;2.596;2023-08-08T07:25:10;26.40;67.30
74809;DHT22;63338;39.544;2.596;2023-08-08T07:27:37;26.50;66.90
74809;DHT22;63338;39.544;2.596;2023-08-08T07:30:07;26.60;66.40
74809;DHT22;63338;39.544;2.596;2023-08-08T07:32:34;26.70;66.00
74809;DHT22;63338;39.544;2.596;2023-08-08T07:35:00;26.70;66.30
74809;DHT22;63338;39.544;2.596;2023-08-08T07:37:41;26.70;66.00
74809;DHT22;63338;39.544;2.596;2023-08-08T07:40:27;26.80;66.10
74809;DHT22;63338;39.544;2.596;2023-08-08T07:43:00;26.90;66.10
74809;DHT22;63338;39.544;2.596;2023-08-08T07:45:26;27.00;66.20
74809;DHT22;63338;39.544;2.596;2023-08-08T07:47:53;26.90;66.30
74809;DHT22;63338;39.544;2.596;2023-08-08T07:50:25;27.00;66.70
74809;DHT22;63338;39.544;2.596;2023-08-08T07:52:54;27.20;66.10
74809;DHT22;63338;39.544;2.596;2023-08-08T07:55:33;27.30;65.60
74809;DHT22;63338;39.544;2.596;2023-08-08T07:58:00;27.30;64.90
74809;DHT22;63338;39.544;2.596;2023-08-08T08:01:01;27.40;65.20
74809;DHT22;63338;39.544;2.596;2023-08-08T08:03:27;27.50;65.00
74809;DHT22;63338;39.544;2.596;2023-08-08T08:05:57;27.50;65.30
74809;DHT22;63338;39.544;2.596;2023-08-08T08:08:23;27.60;65.20
74809;DHT22;63338;39.544;2.596;2023-08-08T08:10:50;27.60;65.10
74809;DHT22;63338;39.544;2.596;2023-08-08T08:13:19;27.80;64.60
74809;DHT22;63338;39.544;2.596;2023-08-08T08:15:46;27.70;63.90
74809;DHT22;63338;39.544;2.596;2023-08-08T08:18:15;27.80;64.20
74809;DHT22;63338;39.544;2.596;2023-08-08T08:20:44;27.90;63.90
74809;DHT22;63338;39.544;2.596;2023-08-08T08:23:10;27.90;63.90
74809;DHT22;63338;39.544;2.596;2023-08-08T08:25:37;28.10;63.40
74809;DHT22;63338;39.544;2.596;2023-08-08T08:28:06;28.20;63.30
74809;DHT22;63338;39.544;2.596;2023-08-08T08:30:37;28.30;63.30
74809;DHT22;63338;39.544;2.596;2023-08-08T08:33:03;28.40;63.20
74809;DHT22;63338;39.544;2.596;2023-08-08T08:35:51;28.40;62.60
74809;DHT22;63338;39.544;2.596;2023-08-08T08:38:22;28.60;62.60
74809;DHT22;63338;39.544;2.596;2023-08-08T08:40:49;28.70;62.10
74809;DHT22;63338;39.544;2.596;2023-08-08T08:43:16;28.90;61.70
74809;DHT22;63338;39.544;2.596;2023-08-08T08:45:43;29.00;61.70
74809;DHT22;63338;39.544;2.596;2023-08-08T08:48:16;29.30;61.10
74809;DHT22;63338;39.544;2.596;2023-08-08T08:50:44;29.60;60.20
74809;DHT22;63338;39.544;2.596;2023-08-08T08:53:13;30.10;59.90
74809;DHT22;63338;39.544;2.596;2023-08-08T08:55:42;30.60;58.90
74809;DHT22;63338;39.544;2.596;2023-08-08T08:58:10;31.10;58.30
74809;DHT22;63338;39.544;2.596;2023-08-08T09:00:43;31.70;56.90
74809;DHT22;63338;39.544;2.596;2023-08-08T09:03:10;32.20;56.00
74809;DHT22;63338;39.544;2.596;2023-08-08T09:05:45;32.60;55.20
74809;DHT22;63338;39.544;2.596;2023-08-08T09:11:11;33.50;53.70
74809;DHT22;63338;39.544;2.596;2023-08-08T09:14:39;33.90;53.00
74809;DHT22;63338;39.544;2.596;2023-08-08T09:17:51;34.30;51.60
74809;DHT22;63338;39.544;2.596;2023-08-08T09:20:50;34.80;50.90
74809;DHT22;63338;39.544;2.596;2023-08-08T09:23:33;35.20;49.50
74809;DHT22;63338;39.544;2.596;2023-08-08T09:26:07;35.50;49.00
74809;DHT22;63338;39.544;2.596;2023-08-08T09:28:44;35.70;48.50
74809;DHT22;63338;39.544;2.596;2023-08-08T09:31:25;35.90;48.30
74809;DHT22;63338;39.544;2.596;2023-08-08T09:34:01;36.30;47.80
74809;DHT22;63338;39.544;2.596;2023-08-08T09:36:31;36.50;47.60
74809;DHT22;63338;39.544;2.596;2023-08-08T09:39:01;36.50;47.60
74809;DHT22;63338;39.544;2.596;2023-08-08T09:41:29;36.50;46.70
74809;DHT22;63338;39.544;2.596;2023-08-08T09:44:02;36.60;47.20
74809;DHT22;63338;39.544;2.596;2023-08-08T09:49:24;36.30;47.10
74809;DHT22;63338;39.544;2.596;2023-08-08T09:51:58;35.90;47.80
74809;DHT22;63338;39.544;2.596;2023-08-08T09:54:25;35.60;47.80
74809;DHT22;63338;39.544;2.596;2023-08-08T09:56:58;35.20;48.30
74809;DHT22;63338;39.544;2.596;2023-08-08T09:59:29;35.00;48.50
74809;DHT22;63338;39.544;2.596;2023-08-08T10:01:56;34.70;48.70
74809;DHT22;63338;39.544;2.596;2023-08-08T10:04:28;34.30;49.70
74809;DHT22;63338;39.544;2.596;2023-08-08T10:06:58;34.00;50.60
74809;DHT22;63338;39.544;2.596;2023-08-08T10:09:50;33.90;51.10
74809;DHT22;63338;39.544;2.596;2023-08-08T10:12:18;33.80;51.00
74809;DHT22;63338;39.544;2.596;2023-08-08T10:14:45;33.70;51.60
74809;DHT22;63338;39.544;2.596;2023-08-08T10:17:15;33.80;51.20
74809;DHT22;63338;39.544;2.596;2023-08-08T10:19:59;33.80;51.10
74809;DHT22;63338;39.544;2.596;2023-08-08T10:22:45;33.60;51.40
74809;DHT22;63338;39.544;2.596;2023-08-08T10:25:33;33.30;52.20
74809;DHT22;63338;39.544;2.596;2023-08-08T10:28:08;33.30;52.20
74809;DHT22;63338;39.544;2.596;2023-08-08T10:30:52;33.30;52.00
74809;DHT22;63338;39.544;2.596;2023-08-08T10:38:52;32.90;53.10
74809;DHT22;63338;39.544;2.596;2023-08-08T10:41:49;32.80;53.40
74809;DHT22;63338;39.544;2.596;2023-08-08T10:44:25;32.90;53.80
74809;DHT22;63338;39.544;2.596;2023-08-08T10:46:57;33.00;54.10
74809;DHT22;63338;39.544;2.596;2023-08-08T10:49:23;33.00;53.90
74809;DHT22;63338;39.544;2.596;2023-08-08T10:51:50;32.90;53.80
74809;DHT22;63338;39.544;2.596;2023-08-08T10:54:29;33.00;54.30
74809;DHT22;63338;39.544;2.596;2023-08-08T10:57:31;33.00;54.30
74809;DHT22;63338;39.544;2.596;2023-08-08T11:00:17;33.00;54.00
74809;DHT22;63338;39.544;2.596;2023-08-08T11:02:44;33.00;54.20
74809;DHT22;63338;39.544;2.596;2023-08-08T11:05:11;32.90;54.80
74809;DHT22;63338;39.544;2.596;2023-08-08T11:07:39;32.80;54.90
74809;DHT22;63338;39.544;2.596;2023-08-08T11:10:06;32.80;55.10
74809;DHT22;63338;39.544;2.596;2023-08-08T11:12:35;32.70;55.60
74809;DHT22;63338;39.544;2.596;2023-08-08T11:15:22;32.60;55.20
74809;DHT22;63338;39.544;2.596;2023-08-08T11:17:53;32.80;54.90
74809;DHT22;63338;39.544;2.596;2023-08-08T11:20:21;32.80;54.50
74809;DHT22;63338;39.544;2.596;2023-08-08T11:22:56;32.80;55.60
74809;DHT22;63338;39.544;2.596;2023-08-08T11:25:26;32.80;55.40
74809;DHT22;63338;39.544;2.596;2023-08-08T11:27:56;32.70;55.20
74809;DHT22;63338;39.544;2.596;2023-08-08T11:30:28;32.60;56.10
74809;DHT22;63338;39.544;2.596;2023-08-08T11:32:55;32.50;56.20
74809;DHT22;63338;39.544;2.596;2023-08-08T11:35:23;32.40;56.20
74809;DHT22;63338;39.544;2.596;2023-08-08T11:37:57;32.00;56.80
74809;DHT22;63338;39.544;2.596;2023-08-08T11:40:36;32.00;57.30
74809;DHT22;63338;39.544;2.596;2023-08-08T11:43:17;31.90;57.20
74809;DHT22;63338;39.544;2.596;2023-08-08T11:45:59;31.90;56.70
74809;DHT22;63338;39.544;2.596;2023-08-08T11:49:05;31.90;56.90
74809;DHT22;63338;39.544;2.596;2023-08-08T11:51:33;31.80;57.00
74809;DHT22;63338;39.544;2.596;2023-08-08T11:54:02;31.80;57.50
74809;DHT22;63338;39.544;2.596;2023-08-08T11:56:33;31.80;58.30
74809;DHT22;63338;39.544;2.596;2023-08-08T11:59:01;31.70;58.60
74809;DHT22;63338;39.544;2.596;2023-08-08T12:01:30;31.60;58.20
74809;DHT22;63338;39.544;2.596;2023-08-08T12:03:56;31.50;58.60
74809;DHT22;63338;39.544;2.596;2023-08-08T12:06:31;31.40;58.40
74809;DHT22;63338;39.544;2.596;2023-08-08T12:08:57;31.30;59.20
74809;DHT22;63338;39.544;2.596;2023-08-08T12:11:24;31.20;59.10
74809;DHT22;63338;39.544;2.596;2023-08-08T12:13:59;31.20;59.60
74809;DHT22;63338;39.544;2.596;2023-08-08T12:16:28;31.10;59.90
74809;DHT22;63338;39.544;2.596;2023-08-08T12:19:02;30.90;59.10
74809;DHT22;63338;39.544;2.596;2023-08-08T12:21:28;30.70;59.40
74809;DHT22;63338;39.544;2.596;2023-08-08T12:23:58;30.50;59.80
74809;DHT22;63338;39.544;2.596;2023-08-08T12:26:24;30.40;59.70
74809;DHT22;63338;39.544;2.596;2023-08-08T12:28:50;30.20;59.30
74809;DHT22;63338;39.544;2.596;2023-08-08T12:31:22;30.10;58.60
74809;DHT22;63338;39.544;2.596;2023-08-08T12:34:30;30.10;58.70
74809;DHT22;63338;39.544;2.596;2023-08-08T12:37:34;29.80;59.80
74809;DHT22;63338;39.544;2.596;2023-08-08T12:40:03;29.80;60.30
74809;DHT22;63338;39.544;2.596;2023-08-08T12:42:30;29.60;58.60
74809;DHT22;63338;39.544;2.596;2023-08-08T12:45:06;29.50;60.00
74809;DHT22;63338;39.544;2.596;2023-08-08T12:47:33;29.40;59.40
74809;DHT22;63338;39.544;2.596;2023-08-08T12:50:06;29.50;59.00
74809;DHT22;63338;39.544;2.596;2023-08-08T12:52:35;29.50;58.60
74809;DHT22;63338;39.544;2.596;2023-08-08T12:55:02;29.30;59.30
74809;DHT22;63338;39.544;2.596;2023-08-08T12:57:28;29.30;60.80
74809;DHT22;63338;39.544;2.596;2023-08-08T12:59:55;29.20;60.40
74809;DHT22;63338;39.544;2.596;2023-08-08T13:02:24;29.20;60.20
74809;DHT22;63338;39.544;2.596;2023-08-08T13:04:52;29.20;59.80
74809;DHT22;63338;39.544;2.596;2023-08-08T13:07:20;29.10;61.20
74809;DHT22;63338;39.544;2.596;2023-08-08T13:09:50;29.10;62.20
74809;DHT22;63338;39.544;2.596;2023-08-08T13:12:19;29.20;61.00
74809;DHT22;63338;39.544;2.596;2023-08-08T13:14:47;29.20;60.30
74809;DHT22;63338;39.544;2.596;2023-08-08T13:17:19;29.20;61.90
74809;DHT22;63338;39.544;2.596;2023-08-08T13:19:53;29.20;61.80
74809;DHT22;63338;39.544;2.596;2023-08-08T13:22:20;29.10;61.20
74809;DHT22;63338;39.544;2.596;2023-08-08T13:25:16;29.00;62.50
74809;DHT22;63338;39.544;2.596;2023-08-08T13:27:45;29.10;61.20
74809;DHT22;63338;39.544;2.596;2023-08-08T13:30:12;29.00;62.60
74809;DHT22;63338;39.544;2.596;2023-08-08T13:32:40;29.00;62.80
74809;DHT22;63338;39.544;2.596;2023-08-08T13:35:07;29.00;62.70
74809;DHT22;63338;39.544;2.596;2023-08-08T13:37:38;28.90;63.50
74809;DHT22;63338;39.544;2.596;2023-08-08T13:40:04;28.90;63.50
74809;DHT22;63338;39.544;2.596;2023-08-08T13:42:34;28.90;63.00
74809;DHT22;63338;39.544;2.596;2023-08-08T13:45:01;28.90;63.30
74809;DHT22;63338;39.544;2.596;2023-08-08T13:47:40;28.90;63.10
74809;DHT22;63338;39.544;2.596;2023-08-08T13:50:07;28.80;62.60
74809;DHT22;63338;39.544;2.596;2023-08-08T13:52:34;28.80;63.40
74809;DHT22;63338;39.544;2.596;2023-08-08T13:55:01;28.80;63.50
74809;DHT22;63338;39.544;2.596;2023-08-08T13:57:27;28.80;62.90
74809;DHT22;63338;39.544;2.596;2023-08-08T13:59:54;28.70;63.30
74809;DHT22;63338;39.544;2.596;2023-08-08T14:02:23;28.80;62.90
74809;DHT22;63338;39.544;2.596;2023-08-08T14:04:52;28.70;64.30
74809;DHT22;63338;39.544;2.596;2023-08-08T14:07:45;28.70;63.80
74809;DHT22;63338;39.544;2.596;2023-08-08T14:10:20;28.70;64.00
74809;DHT22;63338;39.544;2.596;2023-08-08T14:16:33;28.70;64.00
74809;DHT22;63338;39.544;2.596;2023-08-08T14:19:00;28.70;64.30
74809;DHT22;63338;39.544;2.596;2023-08-08T14:21:26;28.80;64.70
74809;DHT22;63338;39.544;2.596;2023-08-08T14:23:53;28.70;64.90
74809;DHT22;63338;39.544;2.596;2023-08-08T14:26:21;28.70;64.80
74809;DHT22;63338;39.544;2.596;2023-08-08T14:28:49;28.70;65.10
74809;DHT22;63338;39.544;2.596;2023-08-08T14:31:18;28.70;64.20
74809;DHT22;63338;39.544;2.596;2023-08-08T14:33:44;28.70;63.90
74809;DHT22;63338;39.544;2.596;2023-08-08T14:36:10;28.60;65.30
74809;DHT22;63338;39.544;2.596;2023-08-08T14:38:39;28.60;66.60
74809;DHT22;63338;39.544;2.596;2023-08-08T14:41:06;28.50;66.50
74809;DHT22;63338;39.544;2.596;2023-08-08T14:43:36;28.40;65.90
74809;DHT22;63338;39.544;2.596;2023-08-08T14:46:02;28.50;66.00
74809;DHT22;63338;39.544;2.596;2023-08-08T14:48:29;28.40;66.40
74809;DHT22;63338;39.544;2.596;2023-08-08T14:51:01;28.40;66.40
74809;DHT22;63338;39.544;2.596;2023-08-08T14:53:27;28.50;66.90
74809;DHT22;63338;39.544;2.596;2023-08-08T14:55:53;28.50;66.70
74809;DHT22;63338;39.544;2.596;2023-08-08T14:58:19;28.40;67.00
74809;DHT22;63338;39.544;2.596;2023-08-08T15:01:09;28.70;66.80
74809;DHT22;63338;39.544;2.596;2023-08-08T15:04:04;28.60;66.40
74809;DHT22;63338;39.544;2.596;2023-08-08T15:06:37;28.60;66.60
74809;DHT22;63338;39.544;2.596;2023-08-08T15:09:08;28.60;66.70
74809;DHT22;63338;39.544;2.596;2023-08-08T15:11:37;28.40;67.00
74809;DHT22;63338;39.544;2.596;2023-08-08T15:14:06;28.50;66.80
74809;DHT22;63338;39.544;2.596;2023-08-08T15:16:33;28.30;66.10
74809;DHT22;63338;39.544;2.596;2023-08-08T15:18:59;28.30;65.60
74809;DHT22;63338;39.544;2.596;2023-08-08T15:24:16;28.30;65.80
74809;DHT22;63338;39.544;2.596;2023-08-08T15:26:42;28.30;65.30
74809;DHT22;63338;39.544;2.596;2023-08-08T15:29:10;28.30;65.90
74809;DHT22;63338;39.544;2.596;2023-08-08T15:31:39;28.30;65.60
74809;DHT22;63338;39.544;2.596;2023-08-08T15:34:06;28.20;65.90
74809;DHT22;63338;39.544;2.596;2023-08-08T15:36:32;28.30;66.30
74809;DHT22;63338;39.544;2.596;2023-08-08T15:38:59;28.30;66.30
74809;DHT22;63338;39.544;2.596;2023-08-08T15:41:25;28.30;66.60
74809;DHT22;63338;39.544;2.596;2023-08-08T15:43:51;28.30;67.00
74809;DHT22;63338;39.544;2.596;2023-08-08T15:46:17;28.20;66.70
74809;DHT22;63338;39.544;2.596;2023-08-08T15:48:43;28.30;65.00
74809;DHT22;63338;39.544;2.596;2023-08-08T15:54:31;28.20;65.30
74809;DHT22;63338;39.544;2.596;2023-08-08T15:56:58;28.20;66.50
74809;DHT22;63338;39.544;2.596;2023-08-08T15:59:28;28.20;67.00
74809;DHT22;63338;39.544;2.596;2023-08-08T16:01:55;28.10;66.80
74809;DHT22;63338;39.544;2.596;2023-08-08T16:04:20;28.20;66.40
74809;DHT22;63338;39.544;2.596;2023-08-08T16:06:47;28.10;66.10
74809;DHT22;63338;39.544;2.596;2023-08-08T16:09:19;28.20;65.70
74809;DHT22;63338;39.544;2.596;2023-08-08T16:11:45;28.20;66.70
74809;DHT22;63338;39.544;2.596;2023-08-08T16:14:11;28.10;66.50
74809;DHT22;63338;39.544;2.596;2023-08-08T16:16:38;28.20;67.00
74809;DHT22;63338;39.544;2.596;2023-08-08T16:19:04;28.10;65.90
74809;DHT22;63338;39.544;2.596;2023-08-08T16:21:30;28.10;66.10